Time;durP1;ratioP1;P1;durP2;ratioP2;P2;SDS_P1;SDS_P2;PMS_P1;PMS_P2;Temp;Humidity;BMP_temperature;BMP_pressure;BME280_temperature;BME280_humidity;BME280_pressure;Samples;Min_cycle;Max_cycle;Signal;HPM_P1;HPM_P2
2022/04/05 00:02:19;;;;;;;1.05;0.50;;;;;;;18.87;43.66;100452.09;4986845;28;20033;-68
2022/04/05 00:04:44;;;;;;;1.65;0.57;;;;;;;18.84;43.64;100445.38;4987463;28;20065;-53
2022/04/05 00:07:10;;;;;;;1.00;0.50;;;;;;;18.83;43.57;100446.38;4987137;28;20491;-47
2022/04/05 00:09:35;;;;;;;1.80;0.75;;;;;;;18.82;43.63;100436.84;4985708;28;20141;-62
2022/04/05 00:12:01;;;;;;;2.58;0.65;;;;;;;18.82;43.64;100442.13;4984017;28;20092;-60
2022/04/05 00:14:26;;;;;;;1.50;0.70;;;;;;;18.81;43.80;100437.84;4986209;28;20117;-59
2022/04/05 00:16:52;;;;;;;1.00;0.50;;;;;;;18.79;43.91;100431.97;4986173;28;20026;-66
2022/04/05 00:19:19;;;;;;;1.88;0.60;;;;;;;18.79;43.88;100434.59;4987156;28;20454;-60
2022/04/05 00:21:45;;;;;;;1.10;0.52;;;;;;;18.77;43.83;100426.06;4986367;28;20034;-56
2022/04/05 00:24:11;;;;;;;2.72;0.80;;;;;;;18.80;43.73;100430.13;4985754;28;20030;-54
2022/04/05 00:26:36;;;;;;;1.10;0.77;;;;;;;18.78;43.72;100422.41;4987463;28;20033;-65
2022/04/05 00:29:02;;;;;;;2.42;0.93;;;;;;;18.80;43.77;100430.13;4987523;28;20607;-60
2022/04/05 00:31:27;;;;;;;1.08;0.52;;;;;;;18.79;43.74;100424.03;4987415;28;20034;-52
2022/04/05 00:33:53;;;;;;;2.03;0.70;;;;;;;18.80;43.64;100419.56;4984688;28;20080;-56
2022/04/05 00:36:18;;;;;;;1.70;0.77;;;;;;;18.79;43.56;100421.41;4986992;28;20129;-68
2022/04/05 00:38:44;;;;;;;1.00;0.70;;;;;;;18.79;43.60;100421.41;4987498;28;20034;-63
2022/04/05 00:41:09;;;;;;;1.42;0.63;;;;;;;18.78;43.60;100411.84;4987356;28;20065;-60
2022/04/05 00:43:35;;;;;;;2.55;0.73;;;;;;;18.79;43.59;100412.66;4984208;28;20022;-55
2022/04/05 00:46:00;;;;;;;1.35;0.60;;;;;;;18.78;43.62;100406.56;4987273;28;20038;-57
2022/04/05 00:48:30;;;;;;;1.05;0.47;;;;;;;18.78;43.72;100417.13;4986615;28;20030;-62
2022/04/05 00:50:56;;;;;;;1.27;0.60;;;;;;;18.76;43.63;100408.59;4979206;28;20038;-67
2022/04/05 00:53:26;;;;;;;2.47;0.80;;;;;;;18.77;43.67;100407.59;4985011;28;20034;-55
2022/04/05 00:55:54;;;;;;;1.20;0.60;;;;;;;18.74;43.72;100407.97;4985522;28;20585;-64
2022/04/05 00:58:21;;;;;;;1.90;0.60;;;;;;;18.73;43.70;100409.00;4981434;28;20490;-62
2022/04/05 01:00:50;;;;;;;1.73;0.60;;;;;;;18.72;43.69;100404.72;4982707;28;20045;-62
2022/04/05 01:03:17;;;;;;;1.70;0.40;;;;;;;18.71;43.80;100403.09;4985972;28;20026;-72
2022/04/05 01:05:44;;;;;;;0.85;0.50;;;;;;;18.71;43.81;100404.94;4985589;28;20386;-56
2022/04/05 01:08:12;;;;;;;1.80;0.60;;;;;;;18.68;43.85;100395.59;4985965;28;20034;-60
2022/04/05 01:10:39;;;;;;;0.70;0.40;;;;;;;18.68;43.90;100397.41;4986820;28;20164;-67
2022/04/05 01:13:04;;;;;;;1.15;0.50;;;;;;;18.67;43.88;100398.41;4981874;28;20074;-59
2022/04/05 01:15:29;;;;;;;2.75;0.93;;;;;;;18.66;43.77;100396.78;4985372;28;20121;-67
2022/04/05 01:17:55;;;;;;;2.42;0.63;;;;;;;18.65;43.92;100395.97;4986555;28;20037;-55
2022/04/05 01:20:21;;;;;;;1.13;0.55;;;;;;;18.64;43.87;100399.63;4986012;28;20038;-55
2022/04/05 01:22:53;;;;;;;1.85;0.45;;;;;;;18.63;43.96;100390.09;4984973;28;20031;-56
2022/04/05 01:25:20;;;;;;;0.50;0.30;;;;;;;18.63;43.94;100386.63;4986326;28;20090;-52
2022/04/05 01:27:47;;;;;;;1.15;0.40;;;;;;;18.63;43.92;100391.91;4986093;28;20042;-59
2022/04/05 01:30:13;;;;;;;2.25;0.60;;;;;;;18.62;43.88;100379.72;4989684;28;20053;-64
2022/04/05 01:32:38;;;;;;;1.80;0.52;;;;;;;18.62;43.76;100383.19;4985801;28;20354;-54
2022/04/05 01:35:06;;;;;;;1.38;0.98;;;;;;;18.62;43.86;100383.19;4985886;28;20028;-53
2022/04/05 01:37:32;;;;;;;3.33;0.90;;;;;;;18.65;43.85;100374.88;4987378;28;20034;-67
2022/04/05 01:39:59;;;;;;;2.72;0.60;;;;;;;18.67;43.77;100379.94;4985068;28;20527;-52
2022/04/05 01:42:25;;;;;;;1.55;0.52;;;;;;;18.68;43.66;100373.66;4985666;28;20061;-50
2022/04/05 01:44:50;;;;;;;1.30;0.70;;;;;;;18.69;43.81;100375.28;4985625;28;20018;-61
2022/04/05 01:47:17;;;;;;;2.22;0.68;;;;;;;18.69;43.70;100373.47;4982356;28;20483;-64
2022/04/05 01:49:45;;;;;;;1.80;0.70;;;;;;;18.70;43.69;100372.44;4985148;28;20026;-59
2022/04/05 01:52:11;;;;;;;1.73;0.60;;;;;;;18.70;43.74;100372.44;4986683;28;20060;-50
2022/04/05 01:54:38;;;;;;;1.13;0.50;;;;;;;18.72;43.63;100374.88;4983870;28;20564;-57
2022/04/05 01:57:05;;;;;;;1.33;0.60;;;;;;;18.72;43.65;100373.06;4984384;28;20041;-62
2022/04/05 01:59:33;;;;;;;1.20;0.60;;;;;;;18.73;43.63;100373.88;4984263;28;20070;-65
2022/04/05 02:02:03;;;;;;;1.35;0.63;;;;;;;18.72;43.42;100375.69;4985021;28;20057;-63
2022/04/05 02:04:28;;;;;;;3.45;0.63;;;;;;;18.71;43.65;100362.72;4984746;28;20054;-58
2022/04/05 02:06:54;;;;;;;1.05;0.50;;;;;;;18.70;43.70;100367.16;4984979;28;20066;-50
2022/04/05 02:09:19;;;;;;;1.20;0.50;;;;;;;18.69;43.62;100365.53;4985883;28;20027;-63
2022/04/05 02:11:47;;;;;;;1.05;0.52;;;;;;;18.68;43.61;100363.91;5135194;23;20053;-61
2022/04/05 02:14:13;;;;;;;0.85;0.40;;;;;;;18.68;43.61;100353.34;5008509;28;20030;-61
2022/04/05 02:16:40;;;;;;;2.53;0.60;;;;;;;18.68;43.58;100357.81;5022748;28;20042;-61
2022/04/05 02:19:05;;;;;;;0.73;0.40;;;;;;;18.66;43.68;100360.66;5008050;28;20033;-61
2022/04/05 02:21:31;;;;;;;1.23;0.50;;;;;;;18.65;43.74;100359.03;5007946;28;20042;-61
2022/04/05 02:23:56;;;;;;;1.08;0.43;;;;;;;18.64;43.62;100354.78;5008300;28;20041;-61
2022/04/05 02:26:22;;;;;;;0.80;0.50;;;;;;;18.63;43.72;100353.16;5008206;28;20299;-61
2022/04/05 02:28:48;;;;;;;1.15;0.55;;;;;;;18.63;43.72;100349.69;5007894;28;20203;-61
2022/04/05 02:31:14;;;;;;;0.93;0.40;;;;;;;18.62;43.68;100338.31;5007960;28;20495;-61
2022/04/05 02:33:40;;;;;;;1.05;0.55;;;;;;;18.61;43.78;100339.34;5005425;28;20108;-62
2022/04/05 02:36:05;;;;;;;3.63;0.80;;;;;;;18.59;43.80;100330.78;5004813;28;20026;-63
2022/04/05 02:38:32;;;;;;;1.67;0.70;;;;;;;18.58;43.88;100331.78;4998650;28;20041;-60
2022/04/05 02:40:57;;;;;;;3.60;0.80;;;;;;;18.57;43.74;100325.69;5006880;28;20033;-60
2022/04/05 02:43:26;;;;;;;1.35;0.75;;;;;;;18.58;43.64;100331.78;5005823;28;20537;-60
2022/04/05 02:45:55;;;;;;;1.48;0.68;;;;;;;18.59;43.69;100325.50;5007570;28;20025;-60
2022/04/05 02:48:21;;;;;;;1.15;0.80;;;;;;;18.57;43.37;100324.88;5006648;28;20045;-60
2022/04/05 02:50:46;;;;;;;0.93;0.50;;;;;;;18.58;43.33;100327.31;5005100;28;20098;-60
2022/04/05 02:53:12;;;;;;;1.50;0.65;;;;;;;18.58;43.12;100318.59;5015755;28;20030;-60
2022/04/05 02:55:37;;;;;;;1.10;0.60;;;;;;;18.58;43.10;100313.31;5004850;28;20033;-60
2022/04/05 02:58:03;;;;;;;1.70;0.80;;;;;;;18.58;43.12;100310.69;5006581;28;20619;-59
2022/04/05 03:00:28;;;;;;;1.50;0.80;;;;;;;18.57;43.00;100315.13;5006819;28;20026;-60
2022/04/05 03:02:54;;;;;;;1.20;0.75;;;;;;;18.57;42.92;100306.41;5006583;28;20036;-60
2022/04/05 03:05:22;;;;;;;1.30;1.02;;;;;;;18.58;42.97;100305.41;5004835;28;20029;-60
2022/04/05 03:07:48;;;;;;;1.60;0.77;;;;;;;18.57;43.00;100309.88;5005775;28;20092;-60
2022/04/05 03:10:13;;;;;;;1.50;0.60;;;;;;;18.56;42.93;100302.16;4998488;28;20050;-60
2022/04/05 03:12:39;;;;;;;1.00;0.60;;;;;;;18.55;42.93;100295.25;5003928;28;20104;-61
2022/04/05 03:15:07;;;;;;;1.35;0.60;;;;;;;18.56;42.85;100302.16;5006904;28;20034;-60
2022/04/05 03:17:33;;;;;;;1.10;0.45;;;;;;;18.55;42.98;100303.16;5007134;28;20036;-59
2022/04/05 03:20:05;;;;;;;1.20;0.60;;;;;;;18.54;42.97;100304.19;5005832;28;20034;-60
2022/04/05 03:22:30;;;;;;;1.98;0.80;;;;;;;18.54;42.94;100306.81;5004195;28;20034;-60
2022/04/05 03:24:56;;;;;;;1.50;0.82;;;;;;;18.53;42.94;100302.53;5005458;28;20044;-61
2022/04/05 03:27:21;;;;;;;0.90;0.60;;;;;;;18.53;42.94;100297.28;5006403;28;20075;-60
2022/04/05 03:29:47;;;;;;;0.90;0.50;;;;;;;18.51;42.95;100300.09;5007804;28;20026;-60
2022/04/05 03:32:13;;;;;;;1.30;0.50;;;;;;;18.50;42.96;100293.22;5010242;28;20033;-60
2022/04/05 03:34:39;;;;;;;1.55;0.63;;;;;;;18.50;42.83;100293.22;5010264;28;20029;-60
2022/04/05 03:37:05;;;;;;;1.00;0.40;;;;;;;18.50;42.99;100295.03;5023537;28;20037;-60
2022/04/05 03:39:31;;;;;;;1.20;0.80;;;;;;;18.49;42.99;100288.13;5010107;28;20398;-60
2022/04/05 03:41:57;;;;;;;0.98;0.50;;;;;;;18.48;42.95;100294.41;5009700;28;20037;-61
2022/04/05 03:44:23;;;;;;;1.30;0.50;;;;;;;18.48;42.95;100302.34;5008376;28;20439;-60
2022/04/05 03:46:48;;;;;;;1.40;0.50;;;;;;;18.47;43.04;100296.25;5011074;28;20120;-59
2022/04/05 03:49:13;;;;;;;1.33;0.82;;;;;;;18.49;42.91;100294.22;5009228;28;20017;-61
2022/04/05 03:51:39;;;;;;;0.88;0.43;;;;;;;18.49;42.83;100301.31;5010687;28;20466;-60
2022/04/05 03:54:04;;;;;;;1.10;0.50;;;;;;;18.48;42.93;100297.06;5006014;28;20359;-60
2022/04/05 03:56:30;;;;;;;1.52;0.52;;;;;;;18.49;42.89;100288.13;5009120;28;20030;-61
2022/04/05 03:58:55;;;;;;;1.05;0.50;;;;;;;18.49;42.82;100286.31;5000686;28;20073;-59
2022/04/05 04:01:21;;;;;;;1.02;0.50;;;;;;;18.50;42.88;100287.13;5009090;28;20030;-59
2022/04/05 04:03:46;;;;;;;1.00;0.45;;;;;;;18.49;42.93;100283.66;5008730;28;20112;-59
2022/04/05 04:06:12;;;;;;;1.15;0.52;;;;;;;18.49;42.91;100281.03;5007904;28;20256;-61
2022/04/05 04:08:37;;;;;;;1.00;0.50;;;;;;;18.51;42.78;100283.47;5008393;28;20030;-60
2022/04/05 04:11:02;;;;;;;1.35;0.70;;;;;;;18.50;42.78;100282.66;4997695;28;20041;-59
2022/04/05 04:13:28;;;;;;;1.27;0.60;;;;;;;18.50;42.74;100284.47;5008518;28;20379;-60
2022/04/05 04:15:56;;;;;;;1.35;0.60;;;;;;;18.50;42.81;100281.84;5010435;28;20033;-60
2022/04/05 04:18:21;;;;;;;1.85;0.55;;;;;;;18.50;42.81;100272.09;5008974;28;20068;-59
2022/04/05 04:20:48;;;;;;;1.55;0.80;;;;;;;18.49;42.80;100269.66;5008686;28;20026;-60
2022/04/05 04:23:15;;;;;;;2.45;0.50;;;;;;;18.49;42.86;100274.94;5003153;28;20045;-61
2022/04/05 04:25:40;;;;;;;1.75;0.70;;;;;;;18.49;42.84;100270.47;5005378;28;20034;-60
2022/04/05 04:28:07;;;;;;;1.85;0.60;;;;;;;18.49;42.90;100269.66;5009441;28;20405;-60
2022/04/05 04:30:33;;;;;;;1.92;0.52;;;;;;;18.47;42.95;100255.88;5009303;28;20026;-60
2022/04/05 04:32:59;;;;;;;1.08;0.52;;;;;;;18.46;42.85;100264.78;5009908;28;20022;-61
2022/04/05 04:35:25;;;;;;;2.22;0.60;;;;;;;18.46;42.89;100256.88;5006587;28;20040;-61
2022/04/05 04:37:51;;;;;;;1.30;0.70;;;;;;;18.46;42.93;100264.78;5007802;28;20429;-60
2022/04/05 04:40:16;;;;;;;0.95;0.52;;;;;;;18.45;42.90;100265.81;5003543;28;20037;-60
2022/04/05 04:42:42;;;;;;;1.20;0.60;;;;;;;18.43;42.96;100265.22;5007507;28;20029;-60
2022/04/05 04:45:08;;;;;;;1.42;0.70;;;;;;;18.43;42.91;100270.50;5006902;28;20501;-61
2022/04/05 04:47:34;;;;;;;0.95;0.50;;;;;;;18.42;42.91;100274.13;5007928;28;20516;-60
2022/04/05 04:50:00;;;;;;;2.47;0.52;;;;;;;18.41;42.90;100275.97;5002770;28;20108;-60
2022/04/05 04:52:26;;;;;;;1.80;0.70;;;;;;;18.41;42.85;100281.25;5007220;28;20044;-60
2022/04/05 04:54:52;;;;;;;1.52;0.82;;;;;;;18.39;42.88;100280.63;4994222;28;20093;-60
2022/04/05 04:57:17;;;;;;;2.08;0.60;;;;;;;18.38;43.02;100279.00;4991636;28;20034;-60
2022/04/05 04:59:42;;;;;;;1.30;0.82;;;;;;;18.38;42.92;100283.47;5008557;28;20030;-60
2022/04/05 05:02:08;;;;;;;1.10;0.50;;;;;;;18.36;42.99;100281.03;5008283;28;20076;-60
2022/04/05 05:04:33;;;;;;;1.85;0.85;;;;;;;18.36;42.94;100277.56;5007352;28;21105;-61
2022/04/05 05:06:59;;;;;;;1.23;0.60;;;;;;;18.36;42.95;100280.22;5007279;28;20557;-60
2022/04/05 05:09:25;;;;;;;2.70;0.60;;;;;;;18.35;42.92;100276.75;5007333;28;20021;-61
2022/04/05 05:11:50;;;;;;;3.03;0.65;;;;;;;18.34;42.91;100277.78;5005244;28;20084;-61
2022/04/05 05:14:16;;;;;;;1.60;0.70;;;;;;;18.34;43.04;100276.97;5008189;28;20046;-60
2022/04/05 05:16:41;;;;;;;2.80;0.60;;;;;;;18.35;42.97;100283.84;5007290;28;20120;-60
2022/04/05 05:19:08;;;;;;;1.73;0.85;;;;;;;18.34;42.91;100287.50;5007289;28;20037;-60
2022/04/05 05:21:34;;;;;;;1.40;0.65;;;;;;;18.35;42.81;100289.94;5008059;28;20034;-60
2022/04/05 05:23:59;;;;;;;1.90;0.80;;;;;;;18.34;42.88;100298.88;5008009;28;20045;-60
2022/04/05 05:26:24;;;;;;;2.65;0.80;;;;;;;18.33;42.97;100294.59;4996449;28;20017;-60
2022/04/05 05:28:50;;;;;;;2.78;0.55;;;;;;;18.34;43.24;100298.06;5007452;28;20311;-62
2022/04/05 05:31:16;;;;;;;1.23;0.50;;;;;;;18.35;43.25;100299.69;5003452;28;20034;-61
2022/04/05 05:33:41;;;;;;;4.18;0.75;;;;;;;18.34;43.32;100293.59;5001016;28;20052;-60
2022/04/05 05:36:07;;;;;;;1.02;0.50;;;;;;;18.36;43.41;100306.59;5001278;28;20041;-60
2022/04/05 05:38:32;;;;;;;2.25;0.43;;;;;;;18.34;43.45;100303.34;5006024;28;20437;-60
2022/04/05 05:40:58;;;;;;;1.13;0.70;;;;;;;18.32;43.44;100297.44;5005963;28;20409;-60
2022/04/05 05:43:23;;;;;;;1.25;0.70;;;;;;;18.31;43.46;100298.44;5007060;28;20451;-60
2022/04/05 05:45:49;;;;;;;1.35;0.60;;;;;;;18.28;43.44;100304.13;5000821;28;20045;-60
2022/04/05 05:48:15;;;;;;;1.08;0.57;;;;;;;18.27;43.49;100305.94;5003980;28;20663;-60
2022/04/05 05:50:41;;;;;;;1.15;0.55;;;;;;;18.27;43.49;100305.13;4999051;28;20579;-61
2022/04/05 05:53:07;;;;;;;1.05;0.55;;;;;;;18.27;43.54;100307.78;5006685;28;20037;-60
2022/04/05 05:55:34;;;;;;;1.05;0.40;;;;;;;18.26;43.55;100314.06;5005606;28;20037;-61
2022/04/05 05:57:59;;;;;;;2.28;0.57;;;;;;;18.26;43.57;100319.34;5006111;28;20029;-60
2022/04/05 06:00:25;;;;;;;2.00;0.70;;;;;;;18.26;43.63;100321.97;5004495;28;20033;-61
2022/04/05 06:02:54;;;;;;;1.45;0.50;;;;;;;18.26;43.54;100324.59;5005616;28;20022;-60
2022/04/05 06:05:19;;;;;;;1.63;0.60;;;;;;;18.27;43.46;100326.22;5006019;28;20088;-60
2022/04/05 06:07:45;;;;;;;1.30;0.60;;;;;;;18.27;43.52;100334.13;5006872;28;20042;-60
2022/04/05 06:10:12;;;;;;;1.67;0.50;;;;;;;18.29;43.58;100338.22;5007827;28;20358;-61
2022/04/05 06:12:42;;;;;;;2.95;0.80;;;;;;;18.31;43.50;100335.38;5007040;28;20048;-60
2022/04/05 06:15:10;;;;;;;1.38;0.70;;;;;;;18.34;43.52;100334.97;5008169;28;20034;-60
2022/04/05 06:17:41;;;;;;;1.55;0.73;;;;;;;18.38;43.42;100338.84;5006577;28;20056;-61
2022/04/05 06:20:07;;;;;;;1.92;0.60;;;;;;;18.42;43.53;100337.44;5006274;28;20030;-60
2022/04/05 06:22:44;;;;;;;1.60;0.80;;;;;;;18.45;43.32;100342.28;5004601;28;20052;-61
2022/04/05 06:25:10;;;;;;;2.25;0.73;;;;;;;18.52;43.33;100343.13;5005861;28;20030;-61
2022/04/05 06:27:37;;;;;;;2.47;0.80;;;;;;;18.56;43.38;100345.19;5006036;28;20036;-60
2022/04/05 06:30:05;;;;;;;2.40;0.65;;;;;;;18.64;43.24;100341.56;5006741;28;20382;-60
2022/04/05 06:32:31;;;;;;;1.73;0.68;;;;;;;18.70;43.12;100346.06;4987587;28;20038;-61
2022/04/05 06:34:56;;;;;;;2.65;0.50;;;;;;;18.73;43.17;100350.13;5004666;28;20398;-61
2022/04/05 06:37:21;;;;;;;1.15;0.70;;;;;;;18.77;43.07;100346.88;5003059;28;20021;-60
2022/04/05 06:39:48;;;;;;;1.85;0.77;;;;;;;18.82;43.00;100351.56;5003856;28;20029;-60
2022/04/05 06:42:14;;;;;;;1.00;0.50;;;;;;;18.85;43.15;100351.16;5004648;28;20065;-60
2022/04/05 06:44:39;;;;;;;1.48;0.45;;;;;;;18.89;43.08;100347.94;5007169;28;20069;-61
2022/04/05 06:47:06;;;;;;;1.33;0.60;;;;;;;18.94;42.95;100347.28;5000809;28;20221;-61
2022/04/05 06:49:32;;;;;;;1.92;0.65;;;;;;;18.98;42.97;100337.13;5004433;28;20096;-61
2022/04/05 06:51:58;;;;;;;2.13;0.93;;;;;;;19.02;42.98;100338.38;5003501;28;20026;-61
2022/04/05 06:54:24;;;;;;;1.27;0.50;;;;;;;19.06;43.03;100343.03;5005430;28;20041;-60
2022/04/05 06:56:49;;;;;;;1.83;0.70;;;;;;;19.10;43.16;100346.09;5000391;28;20125;-61
2022/04/05 06:59:14;;;;;;;1.63;0.60;;;;;;;19.18;43.11;100348.53;5000735;28;20257;-62
2022/04/05 07:01:40;;;;;;;3.78;1.20;;;;;;;19.27;44.18;100347.31;4997632;28;20565;-61
2022/04/05 07:04:06;;;;;;;1.92;1.13;;;;;;;19.28;44.51;100348.94;5007215;28;20014;-60
2022/04/05 07:06:32;;;;;;;3.70;0.85;;;;;;;19.29;44.51;100347.13;5003069;28;20056;-60
2022/04/05 07:08:57;;;;;;;2.28;0.60;;;;;;;19.31;44.55;100345.91;5004192;28;20501;-59
2022/04/05 07:11:22;;;;;;;3.75;0.90;;;;;;;19.41;44.66;100348.09;5004179;28;20030;-61
2022/04/05 07:13:48;;;;;;;2.97;0.80;;;;;;;19.49;44.96;100346.06;5007167;28;20046;-60
2022/04/05 07:16:13;;;;;;;3.40;0.90;;;;;;;19.50;44.86;100352.16;5009268;28;20133;-59
2022/04/05 07:18:39;;;;;;;3.90;0.65;;;;;;;19.48;45.13;100362.13;5010858;28;20923;-60
2022/04/05 07:21:04;;;;;;;3.97;0.90;;;;;;;19.45;45.34;100346.69;5009922;28;20037;-60
2022/04/05 07:23:30;;;;;;;3.70;0.75;;;;;;;19.43;45.42;100354.00;4998637;28;20053;-60
2022/04/05 07:25:55;;;;;;;5.72;0.68;;;;;;;19.42;45.51;100342.63;4998707;28;20026;-60
2022/04/05 07:28:21;;;;;;;1.63;0.70;;;;;;;19.42;45.42;100353.19;5001423;28;20026;-61
2022/04/05 07:30:46;;;;;;;2.08;0.70;;;;;;;19.43;45.28;100343.44;5004000;28;20119;-60
2022/04/05 07:33:11;;;;;;;2.25;0.57;;;;;;;19.42;45.29;100349.72;5008967;28;20356;-62
2022/04/05 07:35:37;;;;;;;6.35;0.70;;;;;;;19.41;45.49;100348.09;5010043;28;20034;-59
2022/04/05 07:38:02;;;;;;;3.25;0.60;;;;;;;19.45;45.80;100344.84;5004104;28;20121;-60
2022/04/05 07:40:47;;;;;;;3.28;0.55;;;;;;;19.57;45.79;100353.00;5001432;28;20437;-60
2022/04/05 07:43:17;;;;;;;1.73;0.73;;;;;;;19.70;46.58;100345.06;5003566;28;20041;-60
2022/04/05 07:45:44;;;;;;;1.90;0.82;;;;;;;19.79;46.77;100343.81;5010857;28;20101;-60
2022/04/05 07:48:10;;;;;;;7.07;0.77;;;;;;;19.87;47.19;100348.84;5002851;28;20106;-61
2022/04/05 07:50:36;;;;;;;144.02;35.15;;;;;;;20.06;51.57;100347.16;5005440;28;20044;-60
2022/04/05 07:53:01;;;;;;;357.50;86.05;;;;;;;20.34;56.12;100338.91;4996395;28;20029;-60
2022/04/05 07:55:27;;;;;;;715.92;363.95;;;;;;;20.45;58.49;100340.91;5010531;28;20088;-62
2022/04/05 07:57:52;;;;;;;245.60;104.20;;;;;;;20.58;58.13;100334.75;5000266;28;20509;-61
2022/04/05 08:00:18;;;;;;;87.63;37.63;;;;;;;20.65;56.93;100332.06;5004199;28;20503;-61
2022/04/05 08:02:44;;;;;;;56.78;27.30;;;;;;;20.54;57.41;100338.84;5004983;28;20021;-61
2022/04/05 08:05:09;;;;;;;32.63;14.82;;;;;;;20.32;55.00;100340.16;5008636;28;20034;-61
2022/04/05 08:07:35;;;;;;;31.55;12.73;;;;;;;20.18;52.50;100340.22;5002810;28;20033;-62
2022/04/05 08:10:00;;;;;;;42.05;12.70;;;;;;;20.10;50.52;100337.00;5006033;28;20030;-63
2022/04/05 08:12:26;;;;;;;34.25;12.30;;;;;;;20.06;49.69;100341.06;5002412;28;20057;-62
2022/04/05 08:14:51;;;;;;;29.88;12.60;;;;;;;20.02;49.38;100345.97;5008153;28;20030;-61
2022/04/05 08:17:16;;;;;;;39.28;12.48;;;;;;;19.99;48.96;100345.56;5007977;28;20390;-61
2022/04/05 08:19:42;;;;;;;24.90;8.52;;;;;;;19.95;48.23;100345.16;5007250;28;20556;-61
2022/04/05 08:22:10;;;;;;;26.13;8.90;;;;;;;19.93;47.55;100341.09;5008702;28;20034;-61
2022/04/05 08:24:35;;;;;;;17.95;7.25;;;;;;;19.89;47.05;100346.00;5006985;28;20034;-61
2022/04/05 08:27:01;;;;;;;18.73;5.65;;;;;;;19.85;46.19;100337.66;5005107;28;20030;-63
2022/04/05 08:29:27;;;;;;;20.63;6.00;;;;;;;19.83;46.20;100345.03;5005939;28;20062;-61
2022/04/05 08:31:52;;;;;;;20.15;7.15;;;;;;;19.80;46.41;100349.91;5004755;28;20030;-62
2022/04/05 08:34:18;;;;;;;18.02;6.05;;;;;;;19.79;46.73;100349.09;5007941;28;20447;-61
2022/04/05 08:36:44;;;;;;;16.63;6.18;;;;;;;19.77;46.36;100352.97;5007413;28;20405;-62
2022/04/05 08:39:09;;;;;;;15.88;6.75;;;;;;;19.74;46.33;100343.63;5006914;28;20072;-62
2022/04/05 08:41:36;;;;;;;13.13;5.80;;;;;;;19.71;46.34;100340.59;5004533;28;20093;-62
2022/04/05 08:44:01;;;;;;;12.80;5.88;;;;;;;19.69;46.27;100345.25;5008122;28;20042;-62
2022/04/05 08:46:31;;;;;;;12.48;4.25;;;;;;;19.67;46.09;100336.72;5006928;28;20516;-61
2022/04/05 08:48:56;;;;;;;22.27;6.18;;;;;;;19.64;46.02;100330.03;5008490;28;20057;-62
2022/04/05 08:51:22;;;;;;;20.13;4.55;;;;;;;19.62;45.82;100334.69;5008369;28;20041;-61
2022/04/05 08:53:48;;;;;;;15.20;5.10;;;;;;;19.61;45.58;100333.06;5009109;28;20108;-61
2022/04/05 08:56:15;;;;;;;14.35;4.68;;;;;;;19.61;45.50;100337.53;5007228;28;20069;-62
2022/04/05 08:58:40;;;;;;;12.07;4.28;;;;;;;19.57;45.25;100337.13;5004321;28;20028;-62
2022/04/05 09:01:06;;;;;;;12.30;4.20;;;;;;;19.59;45.18;100329.00;5004040;28;20030;-62
2022/04/05 09:03:33;;;;;;;9.98;3.95;;;;;;;19.57;44.96;100333.69;5005341;28;20113;-61
2022/04/05 09:06:18;;;;;;;20.13;4.47;;;;;;;19.54;44.79;100335.72;5007115;28;20041;-61
2022/04/05 09:08:47;;;;;;;20.80;4.82;;;;;;;19.53;44.88;100336.75;5005608;28;20037;-60
2022/04/05 09:11:13;;;;;;;18.63;3.65;;;;;;;19.53;45.06;100336.75;5003563;28;20497;-60
2022/04/05 09:13:39;;;;;;;16.17;4.53;;;;;;;19.51;45.03;100344.06;5004868;28;20088;-61
2022/04/05 09:16:05;;;;;;;13.10;2.90;;;;;;;19.50;45.05;100339.75;5008067;28;20041;-61
2022/04/05 09:18:30;;;;;;;13.10;4.25;;;;;;;19.51;45.35;100340.59;5005192;28;20040;-62
2022/04/05 09:20:56;;;;;;;13.68;3.70;;;;;;;19.53;45.71;100343.84;5006418;28;20576;-62
2022/04/05 09:23:31;;;;;;;13.02;4.47;;;;;;;19.54;45.75;100343.66;5000294;28;20458;-61
2022/04/05 09:26:03;;;;;;;11.27;4.03;;;;;;;19.53;45.96;100339.38;5008045;28;20052;-61
2022/04/05 09:28:40;;;;;;;12.73;4.13;;;;;;;19.50;46.07;100341.59;5006548;28;20116;-60
2022/04/05 09:31:08;;;;;;;13.52;4.07;;;;;;;19.48;46.29;100344.44;5002595;28;20470;-62
2022/04/05 09:33:36;;;;;;;8.73;3.28;;;;;;;19.46;45.99;100349.13;5003866;28;20040;-61
2022/04/05 09:36:03;;;;;;;11.38;3.63;;;;;;;19.44;46.21;100355.63;5006158;28;20146;-62
2022/04/05 09:38:29;;;;;;;9.95;3.15;;;;;;;19.42;46.28;100350.53;5007263;28;20030;-61
2022/04/05 09:41:08;;;;;;;13.10;3.55;;;;;;;19.37;46.57;100345.09;5002578;28;20176;-61
2022/04/05 09:43:34;;;;;;;10.82;3.47;;;;;;;19.39;46.79;100347.50;5005876;28;20064;-62
2022/04/05 09:46:02;;;;;;;7.43;2.80;;;;;;;19.38;47.23;100344.03;5006283;28;20068;-60
2022/04/05 09:48:33;;;;;;;9.40;3.60;;;;;;;19.37;48.11;100346.91;5005222;28;20304;-62
2022/04/05 09:51:04;;;;;;;7.43;3.08;;;;;;;19.33;48.69;100346.50;5004546;28;20037;-60
2022/04/05 09:53:57;;;;;;;7.05;3.20;;;;;;;19.29;48.59;100339.19;5004046;28;20041;-61
2022/04/05 09:56:30;;;;;;;7.53;3.95;;;;;;;19.26;48.05;100340.41;5004902;28;20046;-61
2022/04/05 09:59:03;;;;;;;4.93;3.72;;;;;;;19.25;47.73;100337.97;5002847;28;20029;-60
2022/04/05 10:01:32;;;;;;;8.38;3.88;;;;;;;19.23;46.87;100335.53;5006831;28;20037;-61
2022/04/05 10:04:00;;;;;;;6.97;4.30;;;;;;;19.21;46.20;100335.75;5007440;28;20045;-60
2022/04/05 10:06:26;;;;;;;6.47;4.45;;;;;;;19.19;45.40;100329.03;5006953;28;20065;-60
2022/04/05 10:08:52;;;;;;;10.23;4.88;;;;;;;19.20;44.81;100328.03;5008168;28;20197;-60
2022/04/05 10:11:19;;;;;;;7.18;3.78;;;;;;;19.20;44.52;100333.31;5008173;28;20041;-60
2022/04/05 10:13:44;;;;;;;7.43;3.95;;;;;;;19.17;44.01;100325.78;5017584;28;20478;-60
2022/04/05 10:16:12;;;;;;;4.70;3.60;;;;;;;19.19;43.97;100326.41;5008914;28;20037;-60
2022/04/05 10:18:39;;;;;;;4.65;4.03;;;;;;;19.17;43.45;100329.22;5007232;28;20490;-61
2022/04/05 10:21:05;;;;;;;4.80;4.35;;;;;;;19.16;43.10;100330.25;5007729;28;20044;-60
2022/04/05 10:23:32;;;;;;;5.40;3.97;;;;;;;19.15;42.97;100331.28;5006212;28;20354;-60
2022/04/05 10:25:58;;;;;;;4.55;3.95;;;;;;;19.14;42.46;100320.91;5007353;28;20033;-60
2022/04/05 10:28:34;;;;;;;4.60;3.95;;;;;;;19.12;41.90;100328.22;5007377;28;20034;-61
2022/04/05 10:31:23;;;;;;;4.50;4.13;;;;;;;19.11;42.10;100326.59;5004494;28;20073;-61
2022/04/05 10:34:14;;;;;;;3.58;2.78;;;;;;;19.07;42.47;100326.19;4993994;28;20285;-62
2022/04/05 10:36:41;;;;;;;3.55;2.55;;;;;;;19.08;42.71;100322.53;4996477;28;20418;-61
2022/04/05 10:39:13;;;;;;;7.80;2.85;;;;;;;19.08;42.75;100313.78;5000947;28;20065;-61
2022/04/05 10:41:38;;;;;;;9.07;2.35;;;;;;;19.09;42.67;100320.69;5004851;28;20037;-60
2022/04/05 10:44:16;;;;;;;3.33;1.60;;;;;;;19.05;42.46;100320.28;4993454;28;20034;-61
2022/04/05 10:46:50;;;;;;;5.20;1.38;;;;;;;19.07;42.65;100315.63;5001626;28;20038;-60
2022/04/05 10:49:37;;;;;;;2.60;1.40;;;;;;;19.03;42.71;100316.22;5002125;28;20113;-61
2022/04/05 10:52:27;;;;;;;3.60;0.98;;;;;;;19.04;42.85;100312.56;4998750;28;20060;-61
2022/04/05 10:55:16;;;;;;;1.90;1.08;;;;;;;18.99;42.90;100310.53;5002350;28;20052;-61
2022/04/05 10:57:41;;;;;;;3.95;1.02;;;;;;;19.02;43.07;100306.69;4994985;28;20085;-61
2022/04/05 11:00:14;;;;;;;3.17;0.90;;;;;;;19.00;43.15;100312.16;5002679;28;20511;-61
2022/04/05 11:03:00;;;;;;;1.73;0.77;;;;;;;18.98;43.13;100308.91;5007687;28;20262;-61
2022/04/05 11:05:32;;;;;;;2.22;0.80;;;;;;;18.99;43.29;100307.09;5004184;28;20049;-61
2022/04/05 11:07:57;;;;;;;3.13;0.60;;;;;;;18.98;43.25;100313.38;5005407;28;20136;-61
2022/04/05 11:10:38;;;;;;;1.33;0.65;;;;;;;18.96;43.29;100304.84;5005960;28;20455;-61
2022/04/05 11:13:16;;;;;;;1.58;0.70;;;;;;;18.95;43.33;100311.16;5004965;28;20057;-58
2022/04/05 11:15:46;;;;;;;2.33;1.05;;;;;;;18.96;43.64;100312.78;5003276;28;20044;-59
2022/04/05 11:18:18;;;;;;;4.85;0.80;;;;;;;18.94;43.83;100305.06;5004639;28;20071;-61
2022/04/05 11:20:45;;;;;;;3.58;1.05;;;;;;;18.96;43.97;100310.13;5001442;28;20486;-59
2022/04/05 11:23:12;;;;;;;5.25;0.80;;;;;;;18.95;44.02;100311.97;5006112;28;20114;-60
2022/04/05 11:25:37;;;;;;;3.55;1.15;;;;;;;18.96;44.66;100308.31;5005485;28;20041;-60